sensor_id;sensor_type;location;lat;lon;timestamp;P1;durP1;ratioP1;P2;durP2;ratioP2
55827;SDS011;41758;51.992;5.890;2023-03-12T00:00:40;28.52;;;14.23;;
55827;SDS011;41758;51.992;5.890;2023-03-12T00:03:06;22.52;;;12.95;;
55827;SDS011;41758;51.992;5.890;2023-03-12T00:05:32;30.58;;;16.45;;
55827;SDS011;41758;51.992;5.890;2023-03-12T00:07:58;28.40;;;17.15;;
55827;SDS011;41758;51.992;5.890;2023-03-12T00:10:27;20.75;;;12.60;;
55827;SDS011;41758;51.992;5.890;2023-03-12T00:12:53;19.60;;;11.98;;
55827;SDS011;41758;51.992;5.890;2023-03-12T00:15:20;14.90;;;9.85;;
55827;SDS011;41758;51.992;5.890;2023-03-12T00:17:46;16.52;;;8.82;;
55827;SDS011;41758;51.992;5.890;2023-03-12T00:20:12;15.95;;;7.80;;
55827;SDS011;41758;51.992;5.890;2023-03-12T00:22:38;16.48;;;7.72;;
55827;SDS011;41758;51.992;5.890;2023-03-12T00:25:05;16.25;;;8.23;;
55827;SDS011;41758;51.992;5.890;2023-03-12T00:27:35;12.20;;;6.55;;
55827;SDS011;41758;51.992;5.890;2023-03-12T00:30:01;12.57;;;6.78;;
55827;SDS011;41758;51.992;5.890;2023-03-12T00:32:27;17.40;;;8.38;;
55827;SDS011;41758;51.992;5.890;2023-03-12T00:34:53;13.27;;;8.10;;
55827;SDS011;41758;51.992;5.890;2023-03-12T00:37:20;14.00;;;7.78;;
55827;SDS011;41758;51.992;5.890;2023-03-12T00:39:46;14.77;;;7.68;;
55827;SDS011;41758;51.992;5.890;2023-03-12T00:42:12;11.48;;;7.40;;
55827;SDS011;41758;51.992;5.890;2023-03-12T00:44:39;14.32;;;6.68;;
55827;SDS011;41758;51.992;5.890;2023-03-12T00:47:05;12.88;;;6.38;;
55827;SDS011;41758;51.992;5.890;2023-03-12T00:49:31;8.80;;;5.95;;
55827;SDS011;41758;51.992;5.890;2023-03-12T00:51:57;8.00;;;5.10;;
55827;SDS011;41758;51.992;5.890;2023-03-12T00:54:22;12.18;;;5.60;;
55827;SDS011;41758;51.992;5.890;2023-03-12T00:56:48;10.45;;;5.75;;
55827;SDS011;41758;51.992;5.890;2023-03-12T00:59:15;12.68;;;5.30;;
55827;SDS011;41758;51.992;5.890;2023-03-12T01:01:41;8.88;;;5.43;;
55827;SDS011;41758;51.992;5.890;2023-03-12T01:04:08;12.75;;;5.30;;
55827;SDS011;41758;51.992;5.890;2023-03-12T01:06:33;8.65;;;5.05;;
55827;SDS011;41758;51.992;5.890;2023-03-12T01:09:03;8.88;;;4.68;;
55827;SDS011;41758;51.992;5.890;2023-03-12T01:11:30;7.55;;;4.55;;
55827;SDS011;41758;51.992;5.890;2023-03-12T01:13:57;9.02;;;4.75;;
55827;SDS011;41758;51.992;5.890;2023-03-12T01:16:26;10.63;;;4.45;;
55827;SDS011;41758;51.992;5.890;2023-03-12T01:18:57;8.80;;;5.15;;
55827;SDS011;41758;51.992;5.890;2023-03-12T01:21:24;8.30;;;4.80;;
55827;SDS011;41758;51.992;5.890;2023-03-12T01:23:51;9.20;;;4.68;;
55827;SDS011;41758;51.992;5.890;2023-03-12T01:26:17;7.15;;;4.10;;
55827;SDS011;41758;51.992;5.890;2023-03-12T01:28:43;6.95;;;4.07;;
55827;SDS011;41758;51.992;5.890;2023-03-12T01:31:09;9.98;;;4.38;;
55827;SDS011;41758;51.992;5.890;2023-03-12T01:33:36;9.07;;;4.38;;
55827;SDS011;41758;51.992;5.890;2023-03-12T01:36:03;7.60;;;4.38;;
55827;SDS011;41758;51.992;5.890;2023-03-12T01:38:29;7.28;;;3.72;;
55827;SDS011;41758;51.992;5.890;2023-03-12T01:40:55;7.82;;;3.97;;
55827;SDS011;41758;51.992;5.890;2023-03-12T01:43:29;7.38;;;4.10;;
55827;SDS011;41758;51.992;5.890;2023-03-12T01:48:39;8.77;;;4.00;;
55827;SDS011;41758;51.992;5.890;2023-03-12T01:51:09;7.07;;;4.05;;
55827;SDS011;41758;51.992;5.890;2023-03-12T01:53:38;8.43;;;4.20;;
55827;SDS011;41758;51.992;5.890;2023-03-12T01:56:06;6.03;;;3.60;;
55827;SDS011;41758;51.992;5.890;2023-03-12T01:58:33;7.82;;;3.85;;
55827;SDS011;41758;51.992;5.890;2023-03-12T02:01:01;6.63;;;3.67;;
55827;SDS011;41758;51.992;5.890;2023-03-12T02:03:28;7.75;;;3.75;;
55827;SDS011;41758;51.992;5.890;2023-03-12T02:05:59;11.23;;;4.03;;
55827;SDS011;41758;51.992;5.890;2023-03-12T02:08:30;7.50;;;3.50;;
55827;SDS011;41758;51.992;5.890;2023-03-12T02:11:02;7.53;;;3.63;;
55827;SDS011;41758;51.992;5.890;2023-03-12T02:13:28;8.60;;;3.97;;
55827;SDS011;41758;51.992;5.890;2023-03-12T02:15:54;6.88;;;3.72;;
55827;SDS011;41758;51.992;5.890;2023-03-12T02:18:19;8.50;;;3.80;;
55827;SDS011;41758;51.992;5.890;2023-03-12T02:23:30;7.72;;;3.63;;
55827;SDS011;41758;51.992;5.890;2023-03-12T02:26:00;7.82;;;4.00;;
55827;SDS011;41758;51.992;5.890;2023-03-12T02:28:28;8.48;;;3.75;;
55827;SDS011;41758;51.992;5.890;2023-03-12T02:30:58;6.95;;;3.50;;
55827;SDS011;41758;51.992;5.890;2023-03-12T02:33:27;7.30;;;3.67;;
55827;SDS011;41758;51.992;5.890;2023-03-12T02:35:53;9.05;;;3.60;;
55827;SDS011;41758;51.992;5.890;2023-03-12T02:38:53;5.68;;;3.20;;
55827;SDS011;41758;51.992;5.890;2023-03-12T02:41:21;7.10;;;3.40;;
55827;SDS011;41758;51.992;5.890;2023-03-12T02:44:30;8.50;;;3.92;;
55827;SDS011;41758;51.992;5.890;2023-03-12T02:46:42;6.93;;;3.88;;
55827;SDS011;41758;51.992;5.890;2023-03-12T02:49:14;6.00;;;3.30;;
55827;SDS011;41758;51.992;5.890;2023-03-12T02:51:42;6.65;;;3.78;;
55827;SDS011;41758;51.992;5.890;2023-03-12T02:54:10;6.80;;;3.95;;
55827;SDS011;41758;51.992;5.890;2023-03-12T02:56:37;8.07;;;4.00;;
55827;SDS011;41758;51.992;5.890;2023-03-12T02:59:03;8.95;;;4.18;;
55827;SDS011;41758;51.992;5.890;2023-03-12T03:01:33;8.35;;;4.13;;
55827;SDS011;41758;51.992;5.890;2023-03-12T03:03:59;8.15;;;4.03;;
55827;SDS011;41758;51.992;5.890;2023-03-12T03:06:27;6.38;;;3.95;;
55827;SDS011;41758;51.992;5.890;2023-03-12T03:08:53;7.53;;;4.00;;
55827;SDS011;41758;51.992;5.890;2023-03-12T03:11:22;7.15;;;4.13;;
55827;SDS011;41758;51.992;5.890;2023-03-12T03:13:51;9.10;;;3.35;;
55827;SDS011;41758;51.992;5.890;2023-03-12T03:16:18;7.30;;;3.78;;
55827;SDS011;41758;51.992;5.890;2023-03-12T03:18:44;7.57;;;3.42;;
55827;SDS011;41758;51.992;5.890;2023-03-12T03:21:10;9.60;;;3.85;;
55827;SDS011;41758;51.992;5.890;2023-03-12T03:23:44;10.07;;;3.47;;
55827;SDS011;41758;51.992;5.890;2023-03-12T03:26:12;7.45;;;3.72;;
55827;SDS011;41758;51.992;5.890;2023-03-12T03:28:39;8.52;;;3.35;;
55827;SDS011;41758;51.992;5.890;2023-03-12T03:31:05;6.22;;;2.97;;
55827;SDS011;41758;51.992;5.890;2023-03-12T03:33:34;7.53;;;3.03;;
55827;SDS011;41758;51.992;5.890;2023-03-12T03:36:03;6.85;;;3.17;;
55827;SDS011;41758;51.992;5.890;2023-03-12T03:38:33;5.88;;;2.90;;
55827;SDS011;41758;51.992;5.890;2023-03-12T03:41:00;7.07;;;3.10;;
55827;SDS011;41758;51.992;5.890;2023-03-12T03:43:27;7.45;;;3.33;;
55827;SDS011;41758;51.992;5.890;2023-03-12T03:45:57;8.45;;;3.47;;
55827;SDS011;41758;51.992;5.890;2023-03-12T03:48:32;6.72;;;3.20;;
55827;SDS011;41758;51.992;5.890;2023-03-12T03:51:02;6.13;;;3.20;;
55827;SDS011;41758;51.992;5.890;2023-03-12T03:53:31;8.48;;;3.17;;
55827;SDS011;41758;51.992;5.890;2023-03-12T03:56:04;7.15;;;2.92;;
55827;SDS011;41758;51.992;5.890;2023-03-12T03:58:36;5.88;;;2.90;;
55827;SDS011;41758;51.992;5.890;2023-03-12T04:01:01;6.20;;;3.33;;
55827;SDS011;41758;51.992;5.890;2023-03-12T04:03:27;7.97;;;3.30;;
55827;SDS011;41758;51.992;5.890;2023-03-12T04:05:55;7.60;;;3.60;;
55827;SDS011;41758;51.992;5.890;2023-03-12T04:08:21;5.85;;;3.35;;
55827;SDS011;41758;51.992;5.890;2023-03-12T04:10:47;12.15;;;3.78;;
55827;SDS011;41758;51.992;5.890;2023-03-12T04:13:13;7.60;;;3.08;;
55827;SDS011;41758;51.992;5.890;2023-03-12T04:15:44;7.95;;;3.35;;
55827;SDS011;41758;51.992;5.890;2023-03-12T04:18:15;8.30;;;3.47;;
55827;SDS011;41758;51.992;5.890;2023-03-12T04:20:41;6.60;;;3.00;;
55827;SDS011;41758;51.992;5.890;2023-03-12T04:23:07;7.93;;;3.13;;
55827;SDS011;41758;51.992;5.890;2023-03-12T04:25:34;8.90;;;3.67;;
55827;SDS011;41758;51.992;5.890;2023-03-12T04:27:59;6.38;;;3.17;;
55827;SDS011;41758;51.992;5.890;2023-03-12T04:30:26;8.90;;;3.10;;
55827;SDS011;41758;51.992;5.890;2023-03-12T04:32:52;6.95;;;3.45;;
55827;SDS011;41758;51.992;5.890;2023-03-12T04:35:18;6.43;;;2.95;;
55827;SDS011;41758;51.992;5.890;2023-03-12T04:37:44;8.05;;;3.20;;
55827;SDS011;41758;51.992;5.890;2023-03-12T04:40:10;5.53;;;2.95;;
55827;SDS011;41758;51.992;5.890;2023-03-12T04:42:37;4.93;;;2.90;;
55827;SDS011;41758;51.992;5.890;2023-03-12T04:45:04;5.68;;;2.70;;
55827;SDS011;41758;51.992;5.890;2023-03-12T04:47:34;6.55;;;3.17;;
55827;SDS011;41758;51.992;5.890;2023-03-12T04:50:00;6.53;;;3.30;;
55827;SDS011;41758;51.992;5.890;2023-03-12T04:52:26;9.02;;;3.08;;
55827;SDS011;41758;51.992;5.890;2023-03-12T04:54:52;6.10;;;3.25;;
55827;SDS011;41758;51.992;5.890;2023-03-12T04:57:18;7.10;;;2.90;;
55827;SDS011;41758;51.992;5.890;2023-03-12T04:59:44;7.18;;;2.75;;
55827;SDS011;41758;51.992;5.890;2023-03-12T05:02:10;6.63;;;2.80;;
55827;SDS011;41758;51.992;5.890;2023-03-12T05:04:36;6.28;;;3.50;;
55827;SDS011;41758;51.992;5.890;2023-03-12T05:07:01;6.80;;;2.95;;
55827;SDS011;41758;51.992;5.890;2023-03-12T05:09:27;6.75;;;3.33;;
55827;SDS011;41758;51.992;5.890;2023-03-12T05:11:53;5.20;;;2.85;;
55827;SDS011;41758;51.992;5.890;2023-03-12T05:14:20;4.85;;;2.70;;
55827;SDS011;41758;51.992;5.890;2023-03-12T05:16:47;8.50;;;3.28;;
55827;SDS011;41758;51.992;5.890;2023-03-12T05:19:13;6.63;;;3.25;;
55827;SDS011;41758;51.992;5.890;2023-03-12T05:21:40;7.70;;;3.70;;
55827;SDS011;41758;51.992;5.890;2023-03-12T05:24:06;5.72;;;3.15;;
55827;SDS011;41758;51.992;5.890;2023-03-12T05:26:33;7.05;;;3.45;;
55827;SDS011;41758;51.992;5.890;2023-03-12T05:29:07;5.50;;;3.22;;
55827;SDS011;41758;51.992;5.890;2023-03-12T05:31:33;7.10;;;3.33;;
55827;SDS011;41758;51.992;5.890;2023-03-12T05:34:01;5.82;;;2.97;;
55827;SDS011;41758;51.992;5.890;2023-03-12T05:36:28;6.40;;;3.20;;
55827;SDS011;41758;51.992;5.890;2023-03-12T05:38:54;5.75;;;3.28;;
55827;SDS011;41758;51.992;5.890;2023-03-12T05:41:27;6.93;;;3.70;;
55827;SDS011;41758;51.992;5.890;2023-03-12T05:43:58;8.50;;;4.20;;
55827;SDS011;41758;51.992;5.890;2023-03-12T05:46:26;7.35;;;4.10;;
55827;SDS011;41758;51.992;5.890;2023-03-12T05:48:52;6.07;;;3.40;;
55827;SDS011;41758;51.992;5.890;2023-03-12T05:51:18;6.60;;;3.60;;
55827;SDS011;41758;51.992;5.890;2023-03-12T05:53:44;10.68;;;3.20;;
55827;SDS011;41758;51.992;5.890;2023-03-12T05:56:11;6.13;;;3.35;;
55827;SDS011;41758;51.992;5.890;2023-03-12T05:58:40;6.40;;;3.38;;
55827;SDS011;41758;51.992;5.890;2023-03-12T06:01:10;8.00;;;3.45;;
55827;SDS011;41758;51.992;5.890;2023-03-12T06:03:42;7.28;;;3.55;;
55827;SDS011;41758;51.992;5.890;2023-03-12T06:06:09;7.70;;;3.55;;
55827;SDS011;41758;51.992;5.890;2023-03-12T06:08:35;7.75;;;3.50;;
55827;SDS011;41758;51.992;5.890;2023-03-12T06:11:01;5.20;;;3.20;;
55827;SDS011;41758;51.992;5.890;2023-03-12T06:13:28;6.45;;;3.38;;
55827;SDS011;41758;51.992;5.890;2023-03-12T06:16:00;7.45;;;3.40;;
55827;SDS011;41758;51.992;5.890;2023-03-12T06:18:29;5.88;;;3.60;;
55827;SDS011;41758;51.992;5.890;2023-03-12T06:21:06;6.75;;;3.47;;
55827;SDS011;41758;51.992;5.890;2023-03-12T06:23:37;7.70;;;3.85;;
55827;SDS011;41758;51.992;5.890;2023-03-12T06:26:03;7.57;;;3.67;;
55827;SDS011;41758;51.992;5.890;2023-03-12T06:28:37;7.57;;;3.88;;
55827;SDS011;41758;51.992;5.890;2023-03-12T06:31:03;5.22;;;3.25;;
55827;SDS011;41758;51.992;5.890;2023-03-12T06:33:29;7.43;;;3.22;;
55827;SDS011;41758;51.992;5.890;2023-03-12T06:35:56;6.18;;;3.20;;
55827;SDS011;41758;51.992;5.890;2023-03-12T06:38:23;6.53;;;3.35;;
55827;SDS011;41758;51.992;5.890;2023-03-12T06:40:54;6.50;;;3.28;;
55827;SDS011;41758;51.992;5.890;2023-03-12T06:45:50;6.43;;;3.90;;
55827;SDS011;41758;51.992;5.890;2023-03-12T06:48:18;9.00;;;4.00;;
55827;SDS011;41758;51.992;5.890;2023-03-12T06:50:44;7.40;;;3.67;;
55827;SDS011;41758;51.992;5.890;2023-03-12T06:53:10;5.80;;;3.63;;
55827;SDS011;41758;51.992;5.890;2023-03-12T06:55:35;6.68;;;4.00;;
55827;SDS011;41758;51.992;5.890;2023-03-12T06:58:01;7.82;;;4.00;;
55827;SDS011;41758;51.992;5.890;2023-03-12T07:00:28;7.95;;;3.50;;
55827;SDS011;41758;51.992;5.890;2023-03-12T07:02:54;6.20;;;3.40;;
55827;SDS011;41758;51.992;5.890;2023-03-12T07:05:21;8.40;;;3.70;;
55827;SDS011;41758;51.992;5.890;2023-03-12T07:07:48;9.23;;;3.88;;
55827;SDS011;41758;51.992;5.890;2023-03-12T07:10:13;8.13;;;3.75;;
55827;SDS011;41758;51.992;5.890;2023-03-12T07:12:39;8.70;;;3.75;;
55827;SDS011;41758;51.992;5.890;2023-03-12T07:15:05;9.32;;;3.88;;
55827;SDS011;41758;51.992;5.890;2023-03-12T07:17:31;8.82;;;4.28;;
55827;SDS011;41758;51.992;5.890;2023-03-12T07:19:57;8.32;;;3.80;;
55827;SDS011;41758;51.992;5.890;2023-03-12T07:22:23;7.00;;;3.60;;
55827;SDS011;41758;51.992;5.890;2023-03-12T07:24:49;8.38;;;4.05;;
55827;SDS011;41758;51.992;5.890;2023-03-12T07:27:15;7.18;;;3.63;;
55827;SDS011;41758;51.992;5.890;2023-03-12T07:29:42;7.78;;;4.13;;
55827;SDS011;41758;51.992;5.890;2023-03-12T07:32:07;10.38;;;4.63;;
55827;SDS011;41758;51.992;5.890;2023-03-12T07:34:33;10.98;;;4.43;;
55827;SDS011;41758;51.992;5.890;2023-03-12T07:36:59;9.85;;;4.63;;
55827;SDS011;41758;51.992;5.890;2023-03-12T07:39:25;10.38;;;4.47;;
55827;SDS011;41758;51.992;5.890;2023-03-12T07:41:50;7.45;;;3.75;;
55827;SDS011;41758;51.992;5.890;2023-03-12T07:44:16;9.65;;;4.18;;
55827;SDS011;41758;51.992;5.890;2023-03-12T07:46:42;6.43;;;3.88;;
55827;SDS011;41758;51.992;5.890;2023-03-12T07:49:08;7.53;;;4.25;;
55827;SDS011;41758;51.992;5.890;2023-03-12T07:51:33;10.45;;;3.78;;
55827;SDS011;41758;51.992;5.890;2023-03-12T07:53:59;10.40;;;4.60;;
55827;SDS011;41758;51.992;5.890;2023-03-12T07:56:25;10.80;;;4.40;;
55827;SDS011;41758;51.992;5.890;2023-03-12T07:58:51;8.07;;;4.00;;
55827;SDS011;41758;51.992;5.890;2023-03-12T08:01:16;7.38;;;4.35;;
55827;SDS011;41758;51.992;5.890;2023-03-12T08:03:42;10.98;;;4.82;;
55827;SDS011;41758;51.992;5.890;2023-03-12T08:06:08;10.95;;;4.70;;
55827;SDS011;41758;51.992;5.890;2023-03-12T08:08:34;8.38;;;4.72;;
55827;SDS011;41758;51.992;5.890;2023-03-12T08:11:03;8.95;;;4.25;;
55827;SDS011;41758;51.992;5.890;2023-03-12T08:13:29;11.07;;;4.90;;
55827;SDS011;41758;51.992;5.890;2023-03-12T08:15:55;7.75;;;4.25;;
55827;SDS011;41758;51.992;5.890;2023-03-12T08:18:21;8.98;;;5.15;;
55827;SDS011;41758;51.992;5.890;2023-03-12T08:20:49;7.65;;;4.68;;
55827;SDS011;41758;51.992;5.890;2023-03-12T08:23:16;8.23;;;4.88;;
55827;SDS011;41758;51.992;5.890;2023-03-12T08:25:43;7.68;;;4.50;;
55827;SDS011;41758;51.992;5.890;2023-03-12T08:28:11;11.80;;;5.20;;
55827;SDS011;41758;51.992;5.890;2023-03-12T08:30:36;10.00;;;4.93;;
55827;SDS011;41758;51.992;5.890;2023-03-12T08:33:03;9.35;;;5.10;;
55827;SDS011;41758;51.992;5.890;2023-03-12T08:35:29;11.73;;;4.78;;
55827;SDS011;41758;51.992;5.890;2023-03-12T08:37:55;9.23;;;5.10;;
55827;SDS011;41758;51.992;5.890;2023-03-12T08:40:21;8.93;;;5.05;;
55827;SDS011;41758;51.992;5.890;2023-03-12T08:42:48;9.07;;;4.78;;
55827;SDS011;41758;51.992;5.890;2023-03-12T08:45:14;10.90;;;5.05;;
55827;SDS011;41758;51.992;5.890;2023-03-12T08:47:40;8.85;;;5.18;;
55827;SDS011;41758;51.992;5.890;2023-03-12T08:50:11;10.18;;;4.97;;
55827;SDS011;41758;51.992;5.890;2023-03-12T08:52:38;8.57;;;5.25;;
55827;SDS011;41758;51.992;5.890;2023-03-12T08:55:04;10.90;;;5.10;;
55827;SDS011;41758;51.992;5.890;2023-03-12T08:57:30;8.02;;;5.20;;
55827;SDS011;41758;51.992;5.890;2023-03-12T08:59:56;8.82;;;5.50;;
55827;SDS011;41758;51.992;5.890;2023-03-12T09:02:22;8.15;;;5.07;;
55827;SDS011;41758;51.992;5.890;2023-03-12T09:04:48;9.13;;;5.40;;
55827;SDS011;41758;51.992;5.890;2023-03-12T09:07:14;12.27;;;5.93;;
55827;SDS011;41758;51.992;5.890;2023-03-12T09:09:43;9.13;;;5.90;;
55827;SDS011;41758;51.992;5.890;2023-03-12T09:12:09;9.50;;;6.05;;
55827;SDS011;41758;51.992;5.890;2023-03-12T09:14:35;10.23;;;6.15;;
55827;SDS011;41758;51.992;5.890;2023-03-12T09:17:01;9.88;;;6.43;;
55827;SDS011;41758;51.992;5.890;2023-03-12T09:19:29;9.40;;;5.75;;
55827;SDS011;41758;51.992;5.890;2023-03-12T09:21:54;9.77;;;5.55;;
55827;SDS011;41758;51.992;5.890;2023-03-12T09:24:20;9.25;;;6.20;;
55827;SDS011;41758;51.992;5.890;2023-03-12T09:26:46;9.45;;;5.88;;
55827;SDS011;41758;51.992;5.890;2023-03-12T09:29:11;9.20;;;5.72;;
55827;SDS011;41758;51.992;5.890;2023-03-12T09:31:37;10.93;;;6.30;;
55827;SDS011;41758;51.992;5.890;2023-03-12T09:34:03;11.25;;;6.93;;
55827;SDS011;41758;51.992;5.890;2023-03-12T09:36:30;10.00;;;6.10;;
55827;SDS011;41758;51.992;5.890;2023-03-12T09:38:56;10.23;;;6.10;;
55827;SDS011;41758;51.992;5.890;2023-03-12T09:41:23;11.10;;;7.05;;
55827;SDS011;41758;51.992;5.890;2023-03-12T09:43:53;13.75;;;6.75;;
55827;SDS011;41758;51.992;5.890;2023-03-12T09:46:57;11.75;;;6.88;;
55827;SDS011;41758;51.992;5.890;2023-03-12T09:51:56;13.38;;;7.45;;
55827;SDS011;41758;51.992;5.890;2023-03-12T09:54:29;10.38;;;7.53;;
55827;SDS011;41758;51.992;5.890;2023-03-12T09:57:02;62.75;;;31.17;;
55827;SDS011;41758;51.992;5.890;2023-03-12T09:59:35;135.68;;;58.47;;
55827;SDS011;41758;51.992;5.890;2023-03-12T10:02:01;50.67;;;21.77;;
55827;SDS011;41758;51.992;5.890;2023-03-12T10:04:42;16.85;;;10.00;;
55827;SDS011;41758;51.992;5.890;2023-03-12T10:07:20;19.40;;;10.18;;
55827;SDS011;41758;51.992;5.890;2023-03-12T10:12:39;14.73;;;9.35;;
55827;SDS011;41758;51.992;5.890;2023-03-12T10:15:47;13.55;;;8.75;;
55827;SDS011;41758;51.992;5.890;2023-03-12T10:18:39;15.75;;;9.93;;
55827;SDS011;41758;51.992;5.890;2023-03-12T10:26:43;17.42;;;9.40;;
55827;SDS011;41758;51.992;5.890;2023-03-12T10:34:33;17.17;;;10.32;;
55827;SDS011;41758;51.992;5.890;2023-03-12T10:37:17;16.70;;;10.40;;
55827;SDS011;41758;51.992;5.890;2023-03-12T10:39:47;15.65;;;10.13;;
55827;SDS011;41758;51.992;5.890;2023-03-12T10:42:15;16.75;;;10.45;;
55827;SDS011;41758;51.992;5.890;2023-03-12T10:44:44;17.90;;;10.75;;
55827;SDS011;41758;51.992;5.890;2023-03-12T10:49:51;20.92;;;12.57;;
55827;SDS011;41758;51.992;5.890;2023-03-12T10:52:21;22.25;;;12.70;;
55827;SDS011;41758;51.992;5.890;2023-03-12T10:54:48;21.70;;;12.23;;
55827;SDS011;41758;51.992;5.890;2023-03-12T10:57:16;20.42;;;12.43;;
55827;SDS011;41758;51.992;5.890;2023-03-12T10:59:45;21.13;;;12.38;;
55827;SDS011;41758;51.992;5.890;2023-03-12T11:02:32;20.25;;;12.90;;
55827;SDS011;41758;51.992;5.890;2023-03-12T11:05:00;20.85;;;12.60;;
55827;SDS011;41758;51.992;5.890;2023-03-12T11:07:33;23.20;;;13.38;;
55827;SDS011;41758;51.992;5.890;2023-03-12T11:12:29;21.95;;;13.25;;
55827;SDS011;41758;51.992;5.890;2023-03-12T11:14:55;24.00;;;13.35;;
55827;SDS011;41758;51.992;5.890;2023-03-12T11:17:23;22.25;;;12.77;;
55827;SDS011;41758;51.992;5.890;2023-03-12T11:19:50;24.90;;;13.18;;
55827;SDS011;41758;51.992;5.890;2023-03-12T11:22:27;19.30;;;12.32;;
55827;SDS011;41758;51.992;5.890;2023-03-12T11:24:59;25.85;;;13.45;;
55827;SDS011;41758;51.992;5.890;2023-03-12T11:27:43;23.83;;;14.27;;
55827;SDS011;41758;51.992;5.890;2023-03-12T11:30:16;22.17;;;12.65;;
55827;SDS011;41758;51.992;5.890;2023-03-12T11:32:46;23.77;;;12.93;;
55827;SDS011;41758;51.992;5.890;2023-03-12T11:35:14;20.88;;;12.55;;
55827;SDS011;41758;51.992;5.890;2023-03-12T11:40:58;24.02;;;13.68;;
55827;SDS011;41758;51.992;5.890;2023-03-12T11:46:20;23.90;;;12.38;;
55827;SDS011;41758;51.992;5.890;2023-03-12T11:54:31;20.92;;;12.15;;
55827;SDS011;41758;51.992;5.890;2023-03-12T11:59:59;18.85;;;10.30;;
55827;SDS011;41758;51.992;5.890;2023-03-12T12:25:03;25.33;;;8.15;;
55827;SDS011;41758;51.992;5.890;2023-03-12T12:27:43;17.10;;;6.95;;
55827;SDS011;41758;51.992;5.890;2023-03-12T12:35:59;14.23;;;5.82;;
55827;SDS011;41758;51.992;5.890;2023-03-12T12:38:33;24.65;;;6.43;;
55827;SDS011;41758;51.992;5.890;2023-03-12T12:43:38;18.40;;;6.55;;
55827;SDS011;41758;51.992;5.890;2023-03-12T12:46:13;20.13;;;6.85;;
55827;SDS011;41758;51.992;5.890;2023-03-12T12:48:55;23.80;;;6.70;;
55827;SDS011;41758;51.992;5.890;2023-03-12T12:51:44;24.75;;;5.97;;
55827;SDS011;41758;51.992;5.890;2023-03-12T12:54:20;27.58;;;6.72;;
55827;SDS011;41758;51.992;5.890;2023-03-12T12:59:41;21.35;;;6.32;;
55827;SDS011;41758;51.992;5.890;2023-03-12T13:02:16;14.73;;;5.97;;
55827;SDS011;41758;51.992;5.890;2023-03-12T13:04:47;19.33;;;6.15;;
55827;SDS011;41758;51.992;5.890;2023-03-12T13:09:54;15.98;;;5.30;;
55827;SDS011;41758;51.992;5.890;2023-03-12T13:12:31;20.67;;;5.60;;
55827;SDS011;41758;51.992;5.890;2023-03-12T13:15:44;18.67;;;5.85;;
55827;SDS011;41758;51.992;5.890;2023-03-12T13:28:28;19.25;;;4.95;;
55827;SDS011;41758;51.992;5.890;2023-03-12T13:36:44;19.88;;;5.63;;
55827;SDS011;41758;51.992;5.890;2023-03-12T13:39:17;21.67;;;5.43;;
55827;SDS011;41758;51.992;5.890;2023-03-12T13:41:55;16.42;;;5.28;;
55827;SDS011;41758;51.992;5.890;2023-03-12T13:49:54;17.65;;;5.18;;
55827;SDS011;41758;51.992;5.890;2023-03-12T13:52:26;21.52;;;5.88;;
55827;SDS011;41758;51.992;5.890;2023-03-12T13:57:35;19.75;;;5.57;;
55827;SDS011;41758;51.992;5.890;2023-03-12T14:00:11;24.85;;;5.95;;
55827;SDS011;41758;51.992;5.890;2023-03-12T14:02:44;28.98;;;6.55;;
55827;SDS011;41758;51.992;5.890;2023-03-12T14:05:23;27.48;;;6.57;;
55827;SDS011;41758;51.992;5.890;2023-03-12T14:21:01;19.23;;;5.13;;
55827;SDS011;41758;51.992;5.890;2023-03-12T14:23:33;16.77;;;4.43;;
55827;SDS011;41758;51.992;5.890;2023-03-12T14:26:03;19.50;;;4.97;;
55827;SDS011;41758;51.992;5.890;2023-03-12T14:28:31;19.80;;;4.82;;
55827;SDS011;41758;51.992;5.890;2023-03-12T14:31:06;18.77;;;4.93;;
55827;SDS011;41758;51.992;5.890;2023-03-12T14:33:52;21.75;;;4.88;;
55827;SDS011;41758;51.992;5.890;2023-03-12T14:36:41;17.35;;;4.80;;
55827;SDS011;41758;51.992;5.890;2023-03-12T14:41:45;21.08;;;4.47;;
55827;SDS011;41758;51.992;5.890;2023-03-12T14:44:22;17.42;;;4.47;;
55827;SDS011;41758;51.992;5.890;2023-03-12T14:47:06;16.30;;;4.53;;
55827;SDS011;41758;51.992;5.890;2023-03-12T14:49:40;22.88;;;5.40;;
55827;SDS011;41758;51.992;5.890;2023-03-12T14:52:11;15.68;;;4.22;;
55827;SDS011;41758;51.992;5.890;2023-03-12T14:54:51;13.48;;;3.85;;
55827;SDS011;41758;51.992;5.890;2023-03-12T14:57:19;19.77;;;4.70;;
55827;SDS011;41758;51.992;5.890;2023-03-12T14:59:52;14.68;;;3.92;;
55827;SDS011;41758;51.992;5.890;2023-03-12T15:02:22;16.20;;;4.30;;
55827;SDS011;41758;51.992;5.890;2023-03-12T15:04:49;21.67;;;4.80;;
55827;SDS011;41758;51.992;5.890;2023-03-12T15:07:20;18.63;;;4.78;;
55827;SDS011;41758;51.992;5.890;2023-03-12T15:09:53;22.15;;;5.53;;
55827;SDS011;41758;51.992;5.890;2023-03-12T15:12:20;16.17;;;4.07;;
55827;SDS011;41758;51.992;5.890;2023-03-12T15:14:49;22.02;;;4.30;;
55827;SDS011;41758;51.992;5.890;2023-03-12T15:17:19;14.63;;;4.43;;
55827;SDS011;41758;51.992;5.890;2023-03-12T15:19:48;13.70;;;4.05;;
55827;SDS011;41758;51.992;5.890;2023-03-12T15:22:18;20.70;;;5.32;;
55827;SDS011;41758;51.992;5.890;2023-03-12T15:24:47;17.13;;;4.07;;
55827;SDS011;41758;51.992;5.890;2023-03-12T15:29:52;19.05;;;4.47;;
55827;SDS011;41758;51.992;5.890;2023-03-12T15:32:20;14.80;;;4.07;;
55827;SDS011;41758;51.992;5.890;2023-03-12T15:34:50;17.90;;;4.50;;
55827;SDS011;41758;51.992;5.890;2023-03-12T15:37:30;15.73;;;4.18;;
55827;SDS011;41758;51.992;5.890;2023-03-12T15:40:03;21.70;;;4.75;;
55827;SDS011;41758;51.992;5.890;2023-03-12T15:42:50;22.13;;;5.13;;
55827;SDS011;41758;51.992;5.890;2023-03-12T15:45:22;21.38;;;4.57;;
55827;SDS011;41758;51.992;5.890;2023-03-12T15:47:50;17.90;;;4.38;;
55827;SDS011;41758;51.992;5.890;2023-03-12T15:53:02;15.07;;;4.00;;
55827;SDS011;41758;51.992;5.890;2023-03-12T15:55:34;12.60;;;3.83;;
55827;SDS011;41758;51.992;5.890;2023-03-12T15:58:00;21.75;;;4.20;;
55827;SDS011;41758;51.992;5.890;2023-03-12T16:00:27;20.33;;;4.63;;
55827;SDS011;41758;51.992;5.890;2023-03-12T16:03:13;14.68;;;4.28;;
55827;SDS011;41758;51.992;5.890;2023-03-12T16:05:40;16.75;;;4.53;;
55827;SDS011;41758;51.992;5.890;2023-03-12T16:08:11;12.93;;;4.05;;
55827;SDS011;41758;51.992;5.890;2023-03-12T16:10:38;15.00;;;4.50;;
55827;SDS011;41758;51.992;5.890;2023-03-12T16:13:04;17.13;;;4.40;;
55827;SDS011;41758;51.992;5.890;2023-03-12T16:15:31;12.73;;;3.53;;
55827;SDS011;41758;51.992;5.890;2023-03-12T16:18:00;20.00;;;4.32;;
55827;SDS011;41758;51.992;5.890;2023-03-12T16:20:27;16.17;;;4.10;;
55827;SDS011;41758;51.992;5.890;2023-03-12T16:22:53;23.95;;;5.45;;
55827;SDS011;41758;51.992;5.890;2023-03-12T16:25:18;23.92;;;5.00;;
55827;SDS011;41758;51.992;5.890;2023-03-12T16:27:52;13.80;;;4.30;;
55827;SDS011;41758;51.992;5.890;2023-03-12T16:30:30;14.00;;;4.25;;
55827;SDS011;41758;51.992;5.890;2023-03-12T16:33:01;15.57;;;4.38;;
55827;SDS011;41758;51.992;5.890;2023-03-12T16:35:28;17.27;;;4.10;;
55827;SDS011;41758;51.992;5.890;2023-03-12T16:37:56;17.40;;;5.15;;
55827;SDS011;41758;51.992;5.890;2023-03-12T16:40:25;21.55;;;4.80;;
55827;SDS011;41758;51.992;5.890;2023-03-12T16:42:52;19.15;;;4.90;;
55827;SDS011;41758;51.992;5.890;2023-03-12T16:45:19;19.10;;;4.97;;
55827;SDS011;41758;51.992;5.890;2023-03-12T16:47:46;13.98;;;4.47;;
55827;SDS011;41758;51.992;5.890;2023-03-12T16:50:18;15.35;;;4.00;;
55827;SDS011;41758;51.992;5.890;2023-03-12T16:52:45;16.75;;;4.20;;
55827;SDS011;41758;51.992;5.890;2023-03-12T16:55:19;18.35;;;4.78;;
55827;SDS011;41758;51.992;5.890;2023-03-12T16:57:50;22.15;;;4.75;;